Terminal Aerodrome Forecast
Issued by NWS Sterling, VA

Current Version | Previous Version | Text Only | Print | Product List | Glossary On
Versions: 1 2 3 4 5 6 7 8 9 10 11 12 13 14 15 16 17 18 19 20 21 22 23
000
FTUS41 KLWX 302000 AAA
TAFBWI
TAF AMD
KBWI 302053Z 3021/0124 11005KT P6SM FEW250
     FM010300 VRB03KT P6SM BKN045
     FM010600 00000KT 6SM BR OVC025
     FM010800 VRB03KT 6SM BR OVC008
     FM011500 05006KT P6SM BKN015
     FM011600 04006KT P6SM BKN025
     FM011800 03006KT P6SM BKN050=

USA.gov is the U.S. government's official web portal to all federal, state and local government web resources and services.